Time;durP1;ratioP1;P1;durP2;ratioP2;P2;SDS_P1;SDS_P2;PMS_P1;PMS_P2;Temp;Humidity;BMP_temperature;BMP_pressure;BME280_temperature;BME280_humidity;BME280_pressure;Samples;Min_cycle;Max_cycle;Signal;HPM_P1;HPM_P2
2023/07/26 00:00:45;;;;;;;4.03;2.38;;;;;;;;;;4992533;28;20029;-78
2023/07/26 00:04:07;;;;;;;4.00;2.30;;;14.50;99.90;;;;;;5014724;23;20439;-78
2023/07/26 00:06:32;;;;;;;6.13;1.70;;;14.50;99.90;;;;;;4992880;28;20653;-79
2023/07/26 00:08:58;;;;;;;4.53;1.88;;;14.60;99.90;;;;;;4997679;28;20030;-78
2023/07/26 00:11:26;;;;;;;3.75;1.98;;;;;;;;;;5004138;28;20045;-78
2023/07/26 00:13:51;;;;;;;5.93;2.85;;;;;;;;;;4999920;28;20567;-78
2023/07/26 00:16:17;;;;;;;4.78;2.72;;;;;;;;;;4994307;28;20044;-79
2023/07/26 00:18:43;;;;;;;5.70;3.22;;;14.60;99.90;;;;;;5021248;28;20080;-78
2023/07/26 00:21:09;;;;;;;4.90;2.88;;;14.40;99.90;;;;;;5021025;28;20057;-79
2023/07/26 00:23:35;;;;;;;4.13;2.63;;;14.40;99.90;;;;;;4999914;28;20076;-79
2023/07/26 00:26:01;;;;;;;5.75;2.92;;;;;;;;;;4991892;28;20401;-79
2023/07/26 00:28:27;;;;;;;8.05;3.78;;;;;;;;;;5002028;28;20112;-77
2023/07/26 00:30:53;;;;;;;6.78;3.63;;;;;;;;;;5024357;28;20117;-78
2023/07/26 00:33:18;;;;;;;6.20;3.67;;;14.50;99.90;;;;;;5005076;28;20026;-78
2023/07/26 00:35:44;;;;;;;12.15;4.68;;;;;;;;;;5001523;28;20092;-78
2023/07/26 00:38:10;;;;;;;8.20;3.63;;;;;;;;;;5013207;28;20038;-78
2023/07/26 00:40:37;;;;;;;13.05;4.38;;;;;;;;;;4999877;28;20481;-78
2023/07/26 00:43:05;;;;;;;7.55;4.45;;;14.40;99.90;;;;;;5014363;28;20104;-79
2023/07/26 00:45:33;;;;;;;15.20;3.92;;;14.60;99.90;;;;;;4985143;28;20072;-78
2023/07/26 00:48:01;;;;;;;8.48;4.68;;;;;;;;;;5022123;28;20017;-78
2023/07/26 00:50:28;;;;;;;8.48;4.88;;;;;;;;;;4994261;28;20030;-78
2023/07/26 00:52:54;;;;;;;6.38;4.00;;;;;;;;;;5016474;28;20034;-78
2023/07/26 00:55:21;;;;;;;11.02;4.03;;;;;;;;;;5017093;28;20048;-78
2023/07/26 00:57:50;;;;;;;6.47;3.40;;;14.20;99.90;;;;;;4998526;28;20037;-78
2023/07/26 01:00:18;;;;;;;4.30;2.78;;;;;;;;;;4997132;28;20110;-78
2023/07/26 01:02:44;;;;;;;7.38;4.10;;;;;;;;;;5005047;28;20025;-78
2023/07/26 01:05:10;;;;;;;4.38;2.83;;;;;;;;;;5022195;28;20076;-79
2023/07/26 01:07:48;;;;;;;7.70;3.30;;;;;;;;;;5004736;28;20031;-78
2023/07/26 01:10:37;;;;;;;9.52;3.40;;;14.40;99.90;;;;;;5007441;28;20017;-79
2023/07/26 01:13:15;;;;;;;6.78;3.55;;;;;;;;;;5016855;28;20032;-78
2023/07/26 01:15:44;;;;;;;12.77;4.40;;;14.30;99.90;;;;;;5019921;28;20052;-79
2023/07/26 01:18:11;;;;;;;9.68;4.35;;;;;;;;;;5023937;28;20086;-79
2023/07/26 01:20:37;;;;;;;8.68;4.03;;;;;;;;;;5023884;28;20026;-78
2023/07/26 01:23:03;;;;;;;6.13;3.67;;;;;;;;;;5025602;28;20033;-79
2023/07/26 01:25:29;;;;;;;7.43;3.80;;;;;;;;;;5018166;28;20332;-78
2023/07/26 01:27:55;;;;;;;7.15;4.57;;;14.10;99.90;;;;;;5013553;28;20036;-79
2023/07/26 01:30:21;;;;;;;11.35;5.07;;;;;;;;;;5027355;28;20034;-78
2023/07/26 01:32:51;;;;;;;10.07;4.10;;;13.90;99.90;;;;;;5024378;28;20083;-79
2023/07/26 01:35:19;;;;;;;8.20;4.43;;;13.80;99.90;;;;;;5024522;28;20039;-79
2023/07/26 01:37:45;;;;;;;9.35;4.40;;;;;;;;;;5006861;28;20544;-79
2023/07/26 01:40:12;;;;;;;7.75;4.00;;;14.00;99.90;;;;;;5021141;28;20533;-79
2023/07/26 01:42:38;;;;;;;10.55;4.07;;;;;;;;;;5021799;28;20057;-78
2023/07/26 01:45:04;;;;;;;9.27;4.20;;;;;;;;;;5018706;28;20065;-78
2023/07/26 01:47:31;;;;;;;8.48;3.75;;;;;;;;;;5023079;28;20029;-78
2023/07/26 01:49:57;;;;;;;10.13;4.68;;;;;;;;;;5019461;28;20088;-79
2023/07/26 01:52:25;;;;;;;9.18;4.35;;;14.10;99.90;;;;;;5008723;28;20025;-79
2023/07/26 01:54:51;;;;;;;8.90;4.15;;;;;;;;;;5007635;28;20042;-78
2023/07/26 01:57:19;;;;;;;10.20;5.40;;;;;;;;;;5000727;28;20067;-78
2023/07/26 01:59:46;;;;;;;11.55;5.70;;;13.90;99.90;;;;;;5025054;28;20041;-79
2023/07/26 02:02:12;;;;;;;11.57;5.38;;;;;;;;;;5002704;28;20026;-78
2023/07/26 02:04:38;;;;;;;12.20;5.53;;;;;;;;;;5007130;28;20044;-78
2023/07/26 02:07:04;;;;;;;11.75;5.28;;;13.40;99.90;;;;;;5022674;28;20030;-79
2023/07/26 02:09:30;;;;;;;7.60;4.40;;;;;;;;;;5021168;28;20033;-79
2023/07/26 02:11:56;;;;;;;12.05;6.50;;;;;;;;;;5024907;28;20081;-78
2023/07/26 02:14:23;;;;;;;9.07;4.95;;;;;;;;;;5015509;28;20029;-77
2023/07/26 02:16:49;;;;;;;8.27;5.20;;;;;;;;;;5026014;28;20068;-78
2023/07/26 02:19:15;;;;;;;8.65;4.63;;;;;;;;;;5022502;28;20053;-78
2023/07/26 02:21:41;;;;;;;9.32;4.43;;;;;;;;;;5002591;28;20044;-78
2023/07/26 02:24:07;;;;;;;9.02;4.82;;;13.60;99.90;;;;;;5018680;28;20021;-78
2023/07/26 02:26:32;;;;;;;16.95;6.38;;;;;;;;;;5006068;28;20079;-78
2023/07/26 02:28:58;;;;;;;9.55;4.78;;;;;;;;;;5022477;28;20482;-78
2023/07/26 02:31:24;;;;;;;16.77;5.47;;;;;;;;;;5024611;28;20390;-78
2023/07/26 02:33:50;;;;;;;10.45;6.15;;;;;;;;;;5013395;28;20057;-78
2023/07/26 02:36:16;;;;;;;10.27;5.82;;;;;;;;;;5005395;28;20029;-78
2023/07/26 02:38:42;;;;;;;10.98;5.43;;;;;;;;;;5021881;28;20030;-78
2023/07/26 02:41:08;;;;;;;9.80;5.22;;;;;;;;;;5026461;28;20036;-79
2023/07/26 02:43:34;;;;;;;14.05;5.60;;;;;;;;;;4995205;28;20770;-78
2023/07/26 02:46:00;;;;;;;11.18;5.70;;;;;;;;;;5013379;28;20041;-79
2023/07/26 02:48:26;;;;;;;11.05;4.60;;;;;;;;;;5017575;28;20040;-77
2023/07/26 02:50:54;;;;;;;9.55;5.38;;;;;;;;;;5017457;28;20472;-80
2023/07/26 02:53:22;;;;;;;10.65;5.63;;;;;;;;;;5016973;28;20026;-79
2023/07/26 02:55:48;;;;;;;12.77;6.05;;;;;;;;;;5004696;28;20488;-79
2023/07/26 02:58:14;;;;;;;10.80;5.57;;;;;;;;;;5022106;28;20029;-78
2023/07/26 03:00:42;;;;;;;10.18;4.88;;;;;;;;;;5020536;28;20079;-78
2023/07/26 03:03:08;;;;;;;11.60;6.25;;;;;;;;;;5002945;28;21398;-78
2023/07/26 03:05:36;;;;;;;10.68;6.28;;;;;;;;;;5016557;28;20033;-78
2023/07/26 03:08:02;;;;;;;13.90;6.82;;;;;;;;;;5024324;28;20029;-78
2023/07/26 03:10:28;;;;;;;12.65;6.82;;;;;;;;;;5015565;28;20025;-78
2023/07/26 03:12:55;;;;;;;15.43;5.68;;;;;;;;;;5023389;28;20098;-78
2023/07/26 03:15:21;;;;;;;14.70;7.07;;;;;;;;;;5027452;28;20543;-78
2023/07/26 03:17:47;;;;;;;15.05;6.55;;;;;;;;;;5023326;28;20134;-78
2023/07/26 03:20:12;;;;;;;11.35;5.80;;;;;;;;;;5018651;28;20442;-78
2023/07/26 03:22:38;;;;;;;12.05;5.43;;;;;;;;;;5005746;28;20390;-78
2023/07/26 03:25:05;;;;;;;10.82;6.32;;;;;;;;;;5018796;28;20069;-78
2023/07/26 03:27:31;;;;;;;16.33;7.38;;;;;;;;;;5019571;28;20040;-77
2023/07/26 03:29:57;;;;;;;9.57;5.30;;;;;;;;;;5024924;28;20025;-78
2023/07/26 03:32:22;;;;;;;10.52;5.15;;;13.20;99.90;;;;;;5000468;28;20026;-77
2023/07/26 03:34:48;;;;;;;10.95;6.03;;;;;;;;;;5014098;28;20482;-78
2023/07/26 03:37:14;;;;;;;12.93;5.95;;;;;;;;;;5004070;28;20083;-78
2023/07/26 03:39:40;;;;;;;16.15;5.82;;;;;;;;;;5018050;28;20103;-79
2023/07/26 03:42:07;;;;;;;17.55;5.82;;;;;;;;;;5026100;28;20061;-78
2023/07/26 03:44:33;;;;;;;12.63;5.78;;;;;;;;;;5022693;28;20029;-78
2023/07/26 03:46:59;;;;;;;12.25;6.68;;;;;;;;;;5010641;28;20041;-78
2023/07/26 03:49:25;;;;;;;11.25;7.07;;;;;;;;;;5008443;28;20033;-78
2023/07/26 03:51:51;;;;;;;9.18;5.07;;;;;;;;;;4994157;28;20033;-78
2023/07/26 03:54:17;;;;;;;12.82;6.00;;;;;;;;;;4993097;28;20025;-78
2023/07/26 03:56:43;;;;;;;13.18;6.47;;;;;;;;;;5014227;28;20045;-78
2023/07/26 03:59:08;;;;;;;12.23;6.60;;;13.00;99.90;;;;;;5017251;28;20052;-78
2023/07/26 04:01:34;;;;;;;24.23;6.88;;;13.40;99.90;;;;;;5008444;28;20033;-78
2023/07/26 04:04:00;;;;;;;12.00;6.28;;;;;;;;;;5016728;28;20045;-78
2023/07/26 04:06:26;;;;;;;12.13;6.68;;;;;;;;;;5018481;28;20049;-78
2023/07/26 04:08:52;;;;;;;18.00;7.13;;;;;;;;;;4993602;28;20071;-78
2023/07/26 04:11:18;;;;;;;15.95;6.47;;;;;;;;;;5005768;28;20501;-78
2023/07/26 04:13:44;;;;;;;14.55;7.15;;;;;;;;;;4999765;28;20553;-78
2023/07/26 04:16:17;;;;;;;13.25;5.70;;;;;;;;;;4998789;28;20257;-78
2023/07/26 04:18:43;;;;;;;18.52;6.70;;;;;;;;;;4996452;28;21706;-77
2023/07/26 04:21:14;;;;;;;14.10;7.18;;;13.90;99.90;;;;;;5010680;28;20042;-78
2023/07/26 04:23:40;;;;;;;14.77;7.15;;;;;;;;;;5000190;28;20025;-78
2023/07/26 04:26:06;;;;;;;18.33;6.32;;;;;;;;;;5025405;28;20132;-79
2023/07/26 04:28:32;;;;;;;13.20;6.55;;;;;;;;;;5014905;28;20026;-78
2023/07/26 04:30:58;;;;;;;10.35;5.78;;;;;;;;;;5007965;28;20502;-78
2023/07/26 04:33:24;;;;;;;12.85;6.82;;;;;;;;;;4972041;28;20225;-79
2023/07/26 04:35:51;;;;;;;12.20;6.40;;;;;;;;;;4986475;28;20034;-79
2023/07/26 04:38:17;;;;;;;13.15;6.40;;;;;;;;;;4981729;28;20034;-78
2023/07/26 04:40:47;;;;;;;11.27;6.10;;;;;;;;;;4985203;28;20030;-78
2023/07/26 04:43:13;;;;;;;14.75;7.65;;;;;;;;;;4997797;28;20064;-78
2023/07/26 04:45:39;;;;;;;14.38;7.05;;;;;;;;;;5004103;28;20056;-79
2023/07/26 04:48:05;;;;;;;12.48;7.30;;;;;;;;;;5014807;28;20029;-79
2023/07/26 04:50:31;;;;;;;17.02;7.40;;;;;;;;;;5010152;28;20033;-78
2023/07/26 04:52:57;;;;;;;16.65;7.70;;;14.20;99.90;;;;;;5012677;28;20025;-79
2023/07/26 04:55:23;;;;;;;14.23;7.72;;;;;;;;;;5026036;28;20105;-78
2023/07/26 04:57:49;;;;;;;16.75;7.70;;;;;;;;;;5019874;28;20044;-79
2023/07/26 05:00:15;;;;;;;15.60;8.70;;;;;;;;;;5014976;28;20041;-78
2023/07/26 05:02:41;;;;;;;16.25;8.63;;;;;;;;;;5022457;28;20049;-79
2023/07/26 05:05:07;;;;;;;12.85;7.25;;;;;;;;;;5024063;28;20044;-79
2023/07/26 05:07:33;;;;;;;14.70;8.20;;;;;;;;;;5004196;28;20490;-79
2023/07/26 05:09:59;;;;;;;13.45;7.22;;;;;;;;;;5004924;28;20032;-79
2023/07/26 05:12:25;;;;;;;13.75;6.90;;;;;;;;;;5028049;28;20026;-79
2023/07/26 05:14:51;;;;;;;21.33;9.40;;;;;;;;;;5026084;28;20025;-79
2023/07/26 05:17:17;;;;;;;17.80;8.65;;;15.00;99.90;;;;;;5023715;28;20474;-79
2023/07/26 05:19:43;;;;;;;19.60;9.25;;;;;;;;;;5021805;28;20042;-79
2023/07/26 05:22:10;;;;;;;15.75;7.03;;;;;;;;;;5013288;28;20025;-79
2023/07/26 05:24:36;;;;;;;14.82;6.72;;;;;;;;;;5017718;28;20041;-79
2023/07/26 05:27:03;;;;;;;14.98;8.15;;;;;;;;;;5021037;28;20029;-78
2023/07/26 05:29:29;;;;;;;12.38;7.10;;;;;;;;;;5020463;28;20083;-79
2023/07/26 05:31:55;;;;;;;11.82;5.40;;;;;;;;;;5026444;28;20021;-79
2023/07/26 05:34:21;;;;;;;9.30;5.38;;;;;;;;;;5024851;28;20402;-79
2023/07/26 05:36:47;;;;;;;13.82;6.63;;;15.10;99.90;;;;;;5018325;28;20034;-79
2023/07/26 05:39:13;;;;;;;9.43;5.25;;;;;;;;;;5017332;28;20025;-79
2023/07/26 05:41:39;;;;;;;11.73;6.15;;;;;;;;;;5025155;28;20452;-79
2023/07/26 05:44:05;;;;;;;13.07;7.70;;;;;;;;;;4997608;28;20041;-79
2023/07/26 05:46:30;;;;;;;11.13;5.88;;;;;;;;;;5020476;28;20039;-79
2023/07/26 05:48:57;;;;;;;11.77;5.22;;;;;;;;;;5027127;28;20487;-79
2023/07/26 05:51:23;;;;;;;10.07;4.80;;;;;;;;;;5028734;28;20045;-79
2023/07/26 05:53:49;;;;;;;8.70;4.88;;;;;;;;;;5014100;28;20075;-80
2023/07/26 05:56:15;;;;;;;9.18;5.10;;;;;;;;;;5032344;28;20490;-79
2023/07/26 05:58:41;;;;;;;7.00;4.60;;;;;;;;;;5028158;28;20103;-79
2023/07/26 06:01:07;;;;;;;7.63;4.22;;;;;;;;;;5031037;28;20033;-79
2023/07/26 06:03:33;;;;;;;11.52;5.53;;;;;;;;;;5030204;28;20497;-80
2023/07/26 06:06:00;;;;;;;9.43;5.53;;;;;;;;;;5007225;28;20060;-79
2023/07/26 06:08:26;;;;;;;11.10;5.85;;;;;;;;;;5029038;28;20441;-80
2023/07/26 06:10:52;;;;;;;14.43;6.53;;;;;;;;;;5033169;28;20494;-80
2023/07/26 06:13:18;;;;;;;7.43;4.82;;;;;;;;;;5012634;28;20020;-80
2023/07/26 06:15:44;;;;;;;11.52;6.60;;;;;;;;;;5013080;28;20512;-80
2023/07/26 06:18:10;;;;;;;14.45;6.05;;;;;;;;;;5005592;28;20553;-80
2023/07/26 06:20:36;;;;;;;9.30;6.30;;;;;;;;;;5024109;28;20040;-80
2023/07/26 06:23:02;;;;;;;9.18;5.05;;;;;;;;;;5025923;28;20021;-80
2023/07/26 06:25:29;;;;;;;9.93;5.10;;;;;;;;;;5018699;28;20040;-80
2023/07/26 06:27:55;;;;;;;11.30;6.05;;;;;;;;;;5027169;28;20032;-80
2023/07/26 06:30:23;;;;;;;9.88;5.55;;;15.70;99.90;;;;;;5011807;28;20026;-81
2023/07/26 06:32:49;;;;;;;8.05;5.25;;;15.60;99.90;;;;;;5027012;28;20079;-80
2023/07/26 06:35:15;;;;;;;8.65;6.15;;;;;;;;;;5006835;28;20025;-80
2023/07/26 06:37:41;;;;;;;7.45;4.60;;;;;;;;;;5024942;28;20037;-81
2023/07/26 06:40:07;;;;;;;10.57;6.13;;;;;;;;;;5028468;28;20106;-82
2023/07/26 06:42:33;;;;;;;7.45;5.10;;;;;;;;;;5025895;28;20616;-81
2023/07/26 06:44:59;;;;;;;13.60;5.65;;;;;;;;;;5005255;28;20374;-81
2023/07/26 06:47:25;;;;;;;9.63;5.75;;;;;;;;;;5028912;28;20034;-81
2023/07/26 06:49:51;;;;;;;10.68;5.30;;;;;;;;;;5010709;28;20025;-80
2023/07/26 06:52:17;;;;;;;10.68;6.25;;;;;;;;;;5011177;28;20129;-80
2023/07/26 06:54:43;;;;;;;9.48;4.90;;;;;;;;;;5028224;28;20142;-81
2023/07/26 06:57:09;;;;;;;9.15;5.35;;;15.70;99.90;;;;;;5029094;28;20107;-81
2023/07/26 06:59:36;;;;;;;8.05;4.72;;;;;;;;;;5023814;28;20037;-81
2023/07/26 07:02:02;;;;;;;10.23;5.60;;;;;;;;;;5025239;28;20056;-81
2023/07/26 07:04:28;;;;;;;8.20;5.72;;;;;;;;;;5027607;28;20037;-81
2023/07/26 07:06:54;;;;;;;10.18;5.80;;;;;;;;;;5011657;28;20029;-81
2023/07/26 07:09:20;;;;;;;9.18;5.35;;;;;;;;;;5032376;28;20036;-82
2023/07/26 07:11:45;;;;;;;7.82;5.22;;;;;;;;;;5012127;28;20017;-81
2023/07/26 07:14:14;;;;;;;8.70;4.63;;;;;;;;;;5022548;28;20033;-80
2023/07/26 07:16:40;;;;;;;6.25;4.30;;;;;;;;;;5008638;28;20025;-81
2023/07/26 07:19:08;;;;;;;13.82;5.72;;;16.90;99.90;;;;;;5009107;28;20026;-82
2023/07/26 07:21:34;;;;;;;7.70;5.40;;;;;;;;;;5042350;28;20022;-81
2023/07/26 07:24:04;;;;;;;9.35;5.18;;;;;;;;;;5045470;28;20041;-81
2023/07/26 07:26:30;;;;;;;10.10;5.20;;;;;;;;;;5042596;28;20120;-80
2023/07/26 07:28:56;;;;;;;9.68;4.85;;;;;;;;;;5037797;28;20021;-80
2023/07/26 07:31:22;;;;;;;8.52;4.78;;;;;;;;;;5029516;28;20052;-80
2023/07/26 07:33:48;;;;;;;7.68;4.70;;;;;;;;;;5049548;28;20052;-80
2023/07/26 07:36:19;;;;;;;9.27;5.15;;;;;;;;;;5033533;28;20029;-81
2023/07/26 07:38:45;;;;;;;6.63;5.15;;;16.70;99.90;;;;;;5054797;28;20029;-80
2023/07/26 07:41:12;;;;;;;8.93;5.38;;;;;;;;;;5050912;28;20083;-81
2023/07/26 07:43:38;;;;;;;6.60;4.35;;;;;;;;;;5032307;28;20402;-81
2023/07/26 07:46:04;;;;;;;7.13;4.80;;;;;;;;;;5021769;28;20109;-81
2023/07/26 07:48:30;;;;;;;13.07;4.38;;;;;;;;;;5008275;28;21249;-81
2023/07/26 07:50:56;;;;;;;6.50;3.85;;;;;;;;;;5026475;28;20067;-81
2023/07/26 07:53:23;;;;;;;5.78;3.78;;;;;;;;;;5034295;28;20047;-81
2023/07/26 07:55:49;;;;;;;5.63;3.90;;;;;;;;;;5029183;28;20038;-82
2023/07/26 07:58:14;;;;;;;6.95;3.90;;;;;;;;;;5012239;28;20044;-82
2023/07/26 08:00:40;;;;;;;6.47;3.97;;;;;;;;;;5009981;28;20045;-81
2023/07/26 08:03:07;;;;;;;8.95;3.85;;;;;;;;;;5034849;28;20034;-82
2023/07/26 08:05:35;;;;;;;6.43;3.70;;;16.40;99.90;;;;;;5004046;28;20029;-82
2023/07/26 08:08:01;;;;;;;5.93;4.13;;;17.10;99.90;;;;;;5008524;28;20664;-82
2023/07/26 08:10:27;;;;;;;4.88;3.08;;;;;;;;;;5012892;28;20414;-82
2023/07/26 08:12:53;;;;;;;6.07;4.53;;;;;;;;;;5027525;28;20017;-81
2023/07/26 08:15:19;;;;;;;10.15;4.10;;;;;;;;;;5010580;28;20645;-82
2023/07/26 08:17:45;;;;;;;7.80;3.60;;;;;;;;;;5009350;28;20030;-83
2023/07/26 08:20:11;;;;;;;8.57;3.80;;;16.80;99.90;;;;;;5011128;28;20038;-82
2023/07/26 08:22:38;;;;;;;6.45;3.72;;;16.80;99.90;;;;;;5007986;28;20037;-82
2023/07/26 08:25:04;;;;;;;7.38;4.43;;;;;;;;;;5012627;28;20026;-82
2023/07/26 08:27:30;;;;;;;5.05;3.95;;;;;;;;;;5033850;28;20223;-81
2023/07/26 08:29:56;;;;;;;8.25;4.75;;;;;;;;;;5031732;28;20064;-82
2023/07/26 08:32:22;;;;;;;11.68;4.80;;;;;;;;;;5013240;28;20033;-81
2023/07/26 08:34:49;;;;;;;10.57;4.60;;;;;;;;;;5030194;28;20478;-81
2023/07/26 08:37:15;;;;;;;5.70;4.20;;;;;;;;;;5013053;28;20083;-82
2023/07/26 08:39:41;;;;;;;4.65;2.95;;;;;;;;;;5026095;28;20025;-82
2023/07/26 08:42:07;;;;;;;4.68;2.55;;;18.60;99.90;;;;;;5017776;28;20136;-82
2023/07/26 08:44:33;;;;;;;5.55;2.20;;;18.30;99.90;;;;;;5007896;28;20065;-82
2023/07/26 08:47:00;;;;;;;2.92;1.92;;;;;;;;;;5009609;28;20060;-83
2023/07/26 08:49:27;;;;;;;3.17;1.95;;;;;;;;;;5012801;28;20482;-82
2023/07/26 08:51:53;;;;;;;5.97;1.95;;;;;;;;;;5013950;28;20033;-82
2023/07/26 08:54:19;;;;;;;4.50;1.48;;;;;;;;;;5015494;28;20029;-83
2023/07/26 08:56:48;;;;;;;2.50;1.48;;;;;;;;;;5014101;28;20540;-82
2023/07/26 08:59:13;;;;;;;3.55;1.98;;;;;;;;;;5030601;28;20071;-81
2023/07/26 09:01:40;;;;;;;2.45;1.73;;;18.40;99.90;;;;;;5033275;28;20049;-82
2023/07/26 09:04:06;;;;;;;2.10;1.48;;;;;;;;;;5032002;28;20034;-82
2023/07/26 09:06:39;;;;;;;5.32;1.50;;;18.30;99.90;;;;;;5029072;28;20029;-82
2023/07/26 09:09:05;;;;;;;;;;;18.30;99.90;;;;;;5014219;28;20075;-83
2023/07/26 09:11:31;;;;;;;6.22;1.83;;;;;;;;;;5029202;28;19932;-82
2023/07/26 09:13:59;;;;;;;2.58;1.70;;;18.10;99.90;;;;;;5006344;28;20540;-83
2023/07/26 09:16:28;;;;;;;3.08;1.70;;;18.10;99.90;;;;;;5028307;28;20021;-84
2023/07/26 09:19:04;;;;;;;4.20;1.95;;;17.30;99.90;;;;;;5014629;28;20112;-83
2023/07/26 09:21:38;;;;;;;4.05;1.48;;;18.30;99.90;;;;;;5007928;28;20034;-85
2023/07/26 09:24:04;;;;;;;2.92;1.52;;;18.00;99.90;;;;;;5027859;28;20447;-83
2023/07/26 09:26:41;;;;;;;2.72;1.35;;;18.20;99.90;;;;;;5035946;28;20053;-83
2023/07/26 09:29:12;;;;;;;1.77;1.10;;;18.50;99.90;;;;;;5009738;28;20018;-83
2023/07/26 09:31:39;;;;;;;3.67;1.92;;;;;;;;;;5012577;28;20053;-82
2023/07/26 09:34:08;;;;;;;2.47;1.50;;;19.10;99.90;;;;;;5025522;28;20024;-82
2023/07/26 09:36:49;;;;;;;4.65;2.00;;;19.40;99.90;;;;;;5010173;28;20033;-83
2023/07/26 09:39:15;;;;;;;2.17;1.10;;;;;;;;;;5013062;28;20424;-84
2023/07/26 09:41:42;;;;;;;1.90;1.27;;;;;;;;;;5009397;28;20625;-82
2023/07/26 09:44:15;;;;;;;1.92;1.15;;;21.00;99.90;;;;;;5004942;28;20029;-82
2023/07/26 09:46:54;;;;;;;5.45;1.38;;;;;;;;;;5018138;28;20041;-82
2023/07/26 09:49:26;;;;;;;2.47;0.85;;;;;;;;;;5034183;28;20033;-84
2023/07/26 09:51:57;;;;;;;5.60;1.40;;;;;;;;;;5005791;28;20606;-83
2023/07/26 09:54:29;;;;;;;1.27;1.08;;;18.90;99.90;;;;;;5001603;28;20036;-83
2023/07/26 09:56:55;;;;;;;2.80;1.08;;;;;;;;;;5027725;28;20477;-84
2023/07/26 09:59:24;;;;;;;5.28;1.30;;;18.90;99.90;;;;;;5012487;28;20029;-85
2023/07/26 10:01:52;;;;;;;2.92;1.48;;;19.30;99.90;;;;;;5028635;28;20381;-86
2023/07/26 10:04:30;;;;;;;7.32;1.25;;;;;;;;;;5010290;28;20103;-83
2023/07/26 10:06:57;;;;;;;3.28;1.52;;;;;;;;;;5006206;28;20029;-85
2023/07/26 10:09:24;;;;;;;3.08;1.38;;;20.40;99.90;;;;;;5002435;28;20021;-87
2023/07/26 10:11:52;;;;;;;2.92;1.38;;;;;;;;;;5012228;28;20385;-84
2023/07/26 10:14:19;;;;;;;5.55;1.38;;;21.00;99.90;;;;;;5028595;28;20034;-82
2023/07/26 10:16:46;;;;;;;3.20;1.27;;;;;;;;;;5022691;28;20025;-84
2023/07/26 10:19:12;;;;;;;1.88;0.90;;;;;;;;;;4995589;28;20116;-84
2023/07/26 10:21:40;;;;;;;3.40;1.20;;;20.90;99.90;;;;;;4985038;28;20041;-86
2023/07/26 10:24:09;;;;;;;2.58;0.98;;;21.00;99.90;;;;;;5030851;28;20037;-86
2023/07/26 10:26:36;;;;;;;3.67;0.88;;;;;;;;;;5028576;28;20044;-83
2023/07/26 10:29:02;;;;;;;1.23;0.90;;;;;;;;;;5011371;28;20029;-84
2023/07/26 10:31:28;;;;;;;2.70;0.93;;;;;;;;;;5026821;28;20037;-86
2023/07/26 10:33:55;;;;;;;1.70;1.00;;;20.10;99.90;;;;;;5030180;28;20033;-85
2023/07/26 10:36:21;;;;;;;3.33;1.77;;;;;;;;;;5012787;28;20398;-87
2023/07/26 10:38:51;;;;;;;4.53;1.30;;;;;;;;;;5010108;28;20041;-84
2023/07/26 10:41:25;;;;;;;2.80;1.42;;;19.60;99.90;;;;;;5029073;28;20068;-87
2023/07/26 10:44:07;;;;;;;1.88;1.33;;;18.50;99.90;;;;;;4989480;28;20030;-85
2023/07/26 10:47:01;;;;;;;2.40;1.15;;;18.90;99.90;;;;;;4995096;28;20062;-85
2023/07/26 10:49:33;;;;;;;2.90;1.45;;;18.70;99.90;;;;;;4996060;28;20188;-84
2023/07/26 10:52:02;;;;;;;2.30;0.98;;;19.30;99.90;;;;;;5010465;28;20109;-86
2023/07/26 10:54:37;;;;;;;2.97;1.05;;;;;;;;;;5000297;28;20037;-85
2023/07/26 10:57:16;;;;;;;3.03;1.33;;;;;;;;;;4992999;28;20037;-83
2023/07/26 10:59:57;;;;;;;5.03;1.13;;;;;;;;;;5009566;28;20274;-85
2023/07/26 11:02:46;;;;;;;1.00;0.60;;;20.00;99.90;;;;;;4992730;28;20118;-85
2023/07/26 11:05:14;;;;;;;5.18;1.15;;;;;;;;;;5011253;28;20048;-86
2023/07/26 11:07:49;;;;;;;1.33;0.63;;;;;;;;;;5023504;28;20037;-83
2023/07/26 11:10:23;;;;;;;1.42;0.70;;;;;;;;;;5004936;28;20031;-86
2023/07/26 11:12:50;;;;;;;1.30;0.80;;;;;;;;;;5001255;28;20071;-86
2023/07/26 11:15:27;;;;;;;3.35;0.80;;;20.20;99.90;;;;;;4991244;28;20136;-85
2023/07/26 11:17:54;;;;;;;1.50;0.90;;;;;;;;;;5016702;28;20021;-85
2023/07/26 11:20:20;;;;;;;1.48;0.80;;;;;;;;;;5007285;28;20434;-85
2023/07/26 11:22:46;;;;;;;2.38;0.60;;;;;;;;;;5024930;28;20409;-85
2023/07/26 11:25:12;;;;;;;1.10;0.75;;;;;;;;;;5002539;28;20037;-87
2023/07/26 11:27:39;;;;;;;1.10;0.52;;;;;;;;;;5011551;28;20084;-85
2023/07/26 11:30:06;;;;;;;0.60;0.38;;;;;;;;;;5008271;28;20040;-87
2023/07/26 11:32:32;;;;;;;3.35;0.65;;;;;;;;;;5022028;28;20509;-86
2023/07/26 11:34:58;;;;;;;3.35;0.70;;;19.60;99.90;;;;;;5006700;28;20037;-86
2023/07/26 11:37:24;;;;;;;2.85;0.50;;;;;;;;;;5028568;28;20037;-87
2023/07/26 11:40:04;;;;;;;4.28;0.85;;;19.50;99.90;;;;;;5007045;28;20048;-86
2023/07/26 11:42:32;;;;;;;2.75;0.80;;;19.50;99.90;;;;;;5003870;28;20037;-86
2023/07/26 11:44:58;;;;;;;1.67;0.75;;;;;;;;;;5026298;28;20029;-86
2023/07/26 11:47:24;;;;;;;2.25;0.68;;;;;;;;;;5004013;28;20029;-86
2023/07/26 11:49:50;;;;;;;0.63;0.60;;;;;;;;;;5002474;28;21006;-87
2023/07/26 11:52:17;;;;;;;1.85;0.77;;;;;;;;;;5004228;28;20501;-86
2023/07/26 11:54:57;;;;;;;1.88;0.82;;;;;;;;;;5034118;28;20025;-84
2023/07/26 11:57:23;;;;;;;1.00;0.60;;;;;;;;;;5031631;28;20026;-84
2023/07/26 11:59:49;;;;;;;1.98;0.65;;;;;;;;;;5052258;28;20042;-84
2023/07/26 12:02:15;;;;;;;2.17;0.65;;;;;;;;;;5022266;28;20032;-86
2023/07/26 12:04:41;;;;;;;2.90;0.57;;;;;;;;;;5006188;28;20161;-85
2023/07/26 12:07:11;;;;;;;1.85;0.60;;;20.30;99.90;;;;;;5023685;28;20042;-84
2023/07/26 12:09:46;;;;;;;2.05;0.85;;;;;;;;;;5005946;28;20025;-85
2023/07/26 12:12:12;;;;;;;2.75;0.90;;;;;;;;;;5009009;28;20037;-86
2023/07/26 12:14:38;;;;;;;2.13;0.32;;;;;;;;;;5011500;28;20025;-86
2023/07/26 12:17:13;;;;;;;1.25;0.40;;;20.90;99.90;;;;;;5014811;28;20393;-85
2023/07/26 12:19:44;;;;;;;4.10;0.40;;;21.60;99.90;;;;;;5010908;28;20088;-86
2023/07/26 12:22:10;;;;;;;2.08;0.60;;;;;;;;;;5028934;28;20088;-85
2023/07/26 12:24:56;;;;;;;0.77;0.40;;;20.10;99.90;;;;;;5004203;28;20148;-86
2023/07/26 12:27:22;;;;;;;4.18;0.50;;;;;;;;;;5005460;28;20069;-85
2023/07/26 12:29:52;;;;;;;2.30;0.50;;;;;;;;;;5012364;28;20029;-86
2023/07/26 12:32:18;;;;;;;1.38;0.45;;;;;;;;;;5002437;28;20030;-83
2023/07/26 12:34:44;;;;;;;1.40;0.52;;;;;;;;;;5006616;28;20144;-85
2023/07/26 12:37:11;;;;;;;1.33;0.65;;;;;;;;;;5004813;28;20369;-86
2023/07/26 12:39:38;;;;;;;2.63;0.50;;;20.80;99.90;;;;;;5020349;28;20025;-88
2023/07/26 12:42:05;;;;;;;3.20;0.88;;;;;;;;;;5023471;28;20025;-87
2023/07/26 12:44:31;;;;;;;5.40;0.50;;;;;;;;;;5018925;28;20029;-88
2023/07/26 12:46:59;;;;;;;0.70;0.30;;;;;;;;;;5019772;28;20029;-88
2023/07/26 12:49:27;;;;;;;1.08;0.60;;;;;;;;;;5007727;28;20029;-88
2023/07/26 12:51:54;;;;;;;3.35;0.55;;;21.40;99.90;;;;;;5007802;28;20029;-87
2023/07/26 12:54:20;;;;;;;2.42;0.95;;;;;;;;;;5025622;28;20025;-88
2023/07/26 12:56:46;;;;;;;4.13;1.02;;;;;;;;;;5019231;28;20030;-89
2023/07/26 12:59:13;;;;;;;1.67;0.60;;;;;;;;;;5019830;28;20079;-88
2023/07/26 13:01:39;;;;;;;0.32;0.28;;;;;;;;;;5007853;28;20021;-85
2023/07/26 13:04:05;;;;;;;2.28;0.80;;;;;;;;;;5001625;28;20034;-85
2023/07/26 13:06:31;;;;;;;3.30;1.05;;;;;;;;;;5005637;28;20039;-86
2023/07/26 13:08:57;;;;;;;1.92;0.90;;;;;;;;;;5005412;28;20129;-87
2023/07/26 13:11:23;;;;;;;1.25;0.60;;;;;;;;;;5024361;28;20037;-85
2023/07/26 13:13:49;;;;;;;1.40;0.65;;;;;;;;;;5012481;28;20068;-86
2023/07/26 13:16:17;;;;;;;2.25;0.52;;;;;;;;;;5018188;28;20139;-88
2023/07/26 13:18:43;;;;;;;3.38;0.80;;;;;;;;;;5012972;28;20119;-88
2023/07/26 13:21:09;;;;;;;2.47;0.50;;;;;;;;;;5005141;28;20033;-86
2023/07/26 13:23:35;;;;;;;2.67;0.80;;;;;;;;;;5024713;28;20025;-89
2023/07/26 13:26:02;;;;;;;0.93;0.50;;;;;;;;;;5013715;28;20055;-87
2023/07/26 13:28:28;;;;;;;1.25;0.50;;;;;;;;;;5024906;28;20021;-84
2023/07/26 13:30:54;;;;;;;1.35;0.60;;;;;;;;;;5012111;28;20029;-84
2023/07/26 13:33:20;;;;;;;2.92;0.57;;;;;;;;;;5008157;28;20073;-87
2023/07/26 13:35:46;;;;;;;1.10;0.52;;;;;;;;;;5008521;28;20045;-84
2023/07/26 13:38:12;;;;;;;1.27;0.57;;;;;;;;;;5009563;28;20481;-85
2023/07/26 13:40:38;;;;;;;2.65;0.70;;;;;;;;;;5009977;28;20049;-85
2023/07/26 13:43:04;;;;;;;1.75;0.77;;;;;;;;;;5008574;28;20025;-85
2023/07/26 13:45:30;;;;;;;3.15;0.60;;;;;;;;;;5030552;28;20088;-86
2023/07/26 13:47:57;;;;;;;5.03;0.40;;;;;;;;;;5031173;28;20022;-85
2023/07/26 13:50:23;;;;;;;8.48;0.80;;;;;;;;;;5028057;28;20057;-84
2023/07/26 13:52:49;;;;;;;1.38;0.57;;;;;;;;;;5008708;28;20092;-85
2023/07/26 13:55:15;;;;;;;0.95;0.40;;;;;;;;;;5010214;28;20558;-86
2023/07/26 13:57:41;;;;;;;6.63;0.93;;;;;;;;;;5010972;28;20041;-86
2023/07/26 14:00:07;;;;;;;0.90;0.50;;;;;;;;;;5010285;28;20045;-85
2023/07/26 14:02:33;;;;;;;3.40;0.60;;;;;;;;;;5009495;28;20482;-84
2023/07/26 14:04:59;;;;;;;1.88;0.55;;;;;;;;;;5011754;28;20025;-85
2023/07/26 14:07:25;;;;;;;0.85;0.45;;;;;;;;;;5008796;28;20820;-85
2023/07/26 14:09:52;;;;;;;1.27;0.70;;;;;;;;;;5028747;28;20029;-86
2023/07/26 14:12:18;;;;;;;3.60;0.55;;;;;;;;;;5007439;28;20022;-85